Time;durP1;ratioP1;P1;durP2;ratioP2;P2;SDS_P1;SDS_P2;PMS_P1;PMS_P2;Temp;Humidity;BMP_temperature;BMP_pressure;BME280_temperature;BME280_humidity;BME280_pressure;Samples;Min_cycle;Max_cycle;Signal;HPM_P1;HPM_P2
2022/02/08 00:22:51;;;;;;;12.07;3.40;;;4.00;1.00;;;;;;6133275;22;20220;-83
2022/02/08 00:26:36;;;;;;;13.60;4.15;;;4.00;1.00;;;;;;6175185;23;20226;-84
2022/02/08 00:41:54;;;;;;;9.85;4.43;;;4.10;1.00;;;;;;5946035;23;20192;-85
2022/02/08 01:03:47;;;;;;;11.93;4.05;;;4.40;1.00;;;;;;5992494;23;20202;-85
2022/02/08 01:14:38;;;;;;;9.55;3.80;;;4.40;1.00;;;;;;6044822;23;20228;-85
2022/02/08 01:29:16;;;;;;;;;;;;;;;;;;;;;
2022/02/08 02:09:54;;;;;;;8.52;3.50;;;4.50;1.00;;;;;;5137866;27;20600;-86
2022/02/08 02:12:21;;;;;;;14.27;3.85;;;4.10;1.00;;;;;;5127225;27;20228;-84
2022/02/08 02:14:48;;;;;;;9.40;3.58;;;4.10;1.00;;;;;;5121237;27;20763;-84
2022/02/08 02:17:16;;;;;;;7.05;2.97;;;4.00;1.00;;;;;;5130023;27;20199;-82
2022/02/08 02:19:43;;;;;;;7.97;2.75;;;3.90;1.00;;;;;;5142256;27;20297;-81
2022/02/08 02:22:11;;;;;;;13.02;4.10;;;3.80;1.00;;;;;;5142056;27;20206;-82
2022/02/08 02:24:40;;;;;;;11.75;3.20;;;3.80;1.00;;;;;;5134623;27;20287;-84
2022/02/08 02:27:09;;;;;;;12.82;3.08;;;3.80;1.00;;;;;;5114656;27;24031;-82
2022/02/08 02:29:36;;;;;;;11.57;3.17;;;3.70;1.00;;;;;;5113629;27;20568;-85
2022/02/08 02:32:05;;;;;;;10.48;3.40;;;3.60;1.00;;;;;;5112938;27;20239;-82
2022/02/08 02:34:31;;;;;;;12.15;3.47;;;3.70;1.00;;;;;;5117000;27;20224;-82
2022/02/08 02:36:59;;;;;;;12.40;4.53;;;3.60;1.00;;;;;;5117912;27;20463;-84
2022/02/08 02:39:28;;;;;;;13.23;4.40;;;3.70;1.00;;;;;;5115184;27;20229;-84
2022/02/08 02:41:56;;;;;;;8.98;3.40;;;3.70;1.00;;;;;;5116792;27;20853;-83
2022/02/08 02:44:24;;;;;;;9.45;3.80;;;3.80;1.00;;;;;;5118599;27;20232;-85
2022/02/08 02:46:52;;;;;;;12.30;3.70;;;3.70;1.00;;;;;;5109216;27;20223;-84
2022/02/08 02:49:19;;;;;;;12.73;2.90;;;3.80;1.00;;;;;;5115729;27;20239;-84
2022/02/08 02:51:46;;;;;;;9.73;4.00;;;3.80;1.00;;;;;;5115966;27;20219;-84
2022/02/08 02:54:17;;;;;;;13.38;2.78;;;3.80;1.00;;;;;;5116743;27;20255;-83
2022/02/08 02:56:45;;;;;;;8.95;2.97;;;3.90;1.00;;;;;;5116454;27;20238;-83
2022/02/08 02:59:14;;;;;;;9.68;3.90;;;3.90;1.00;;;;;;5122070;27;20237;-84
2022/02/08 03:01:59;;;;;;;14.75;3.00;;;3.90;1.00;;;;;;5118767;27;20231;-84
2022/02/08 03:04:37;;;;;;;8.45;2.72;;;4.00;1.00;;;;;;5129893;27;20374;-85
2022/02/08 03:18:30;;;;;;;13.02;3.00;;;4.10;1.00;;;;;;5099274;27;20227;-84
2022/02/08 03:20:57;;;;;;;6.00;3.10;;;4.10;1.00;;;;;;5101818;27;20224;-84
2022/02/08 03:23:24;;;;;;;8.63;5.00;;;4.10;1.00;;;;;;5099269;27;20227;-85
2022/02/08 03:25:51;;;;;;;9.50;5.78;;;4.10;1.00;;;;;;5099753;27;20231;-83
2022/02/08 03:28:17;;;;;;;14.30;5.70;;;4.10;1.00;;;;;;5103002;27;20293;-84
2022/02/08 03:30:46;;;;;;;8.88;4.78;;;4.00;1.00;;;;;;5103886;27;20225;-85
2022/02/08 03:33:12;;;;;;;10.40;6.30;;;4.00;1.00;;;;;;5102679;27;21064;-83
2022/02/08 03:35:39;;;;;;;8.23;4.90;;;3.90;1.00;;;;;;5117618;27;20276;-83
2022/02/08 03:38:08;;;;;;;9.18;4.68;;;3.90;1.00;;;;;;5118088;28;20227;-84
2022/02/08 03:40:41;;;;;;;12.27;5.13;;;3.80;1.00;;;;;;5119034;27;20269;-82
2022/02/08 03:43:28;;;;;;;11.80;5.00;;;3.80;1.00;;;;;;5121190;27;20259;-83
2022/02/08 03:46:00;;;;;;;7.90;3.90;;;3.80;1.00;;;;;;5112570;27;20241;-82
2022/02/08 03:48:30;;;;;;;9.27;4.80;;;3.80;1.00;;;;;;5102636;28;20218;-83
2022/02/08 03:51:06;;;;;;;12.10;4.28;;;3.70;1.00;;;;;;5094239;27;20223;-84
2022/02/08 03:53:34;;;;;;;7.25;2.97;;;3.80;1.00;;;;;;5096293;27;21514;-84
2022/02/08 03:56:00;;;;;;;9.35;4.05;;;3.70;1.00;;;;;;5098598;27;20728;-84
2022/02/08 03:58:27;;;;;;;11.75;3.70;;;3.80;1.00;;;;;;5117932;27;20720;-85
2022/02/08 04:01:11;;;;;;;8.32;3.40;;;3.80;1.00;;;;;;5106638;28;20254;-84
2022/02/08 04:03:49;;;;;;;4.50;2.80;;;3.80;1.00;;;;;;5105114;27;20225;-85
2022/02/08 04:06:16;;;;;;;8.75;3.78;;;3.80;1.00;;;;;;5107241;27;20235;-83
2022/02/08 04:08:43;;;;;;;7.78;3.47;;;3.80;1.00;;;;;;5105671;27;20276;-84
2022/02/08 04:11:10;;;;;;;9.10;4.38;;;3.90;1.00;;;;;;5109283;27;20250;-84
2022/02/08 04:13:46;;;;;;;13.25;4.50;;;3.90;1.00;;;;;;5110417;27;20223;-82
2022/02/08 04:16:24;;;;;;;12.32;4.15;;;3.90;1.00;;;;;;5110444;27;20203;-82
2022/02/08 04:19:00;;;;;;;7.63;3.53;;;3.90;1.00;;;;;;5109632;27;20260;-84
2022/02/08 04:32:45;;;;;;;10.40;5.18;;;4.00;1.00;;;;;;5123746;27;20234;-81
2022/02/08 04:35:38;;;;;;;9.07;4.00;;;4.10;1.00;;;;;;5101488;27;20227;-84
2022/02/08 04:38:23;;;;;;;7.72;3.67;;;4.10;1.00;;;;;;5103053;27;20243;-84
2022/02/08 04:40:58;;;;;;;14.55;6.47;;;4.10;1.00;;;;;;5097652;27;20280;-83
2022/02/08 04:43:36;;;;;;;12.05;3.95;;;4.10;1.00;;;;;;5102838;27;20224;-83
2022/02/08 04:46:09;;;;;;;7.68;4.03;;;4.20;1.00;;;;;;5105675;27;20231;-85
2022/02/08 04:48:47;;;;;;;9.25;4.25;;;4.20;1.00;;;;;;5102405;27;20275;-82
2022/02/08 04:51:21;;;;;;;9.43;3.95;;;4.10;1.00;;;;;;5109726;27;20219;-82
2022/02/08 04:53:55;;;;;;;9.63;4.15;;;4.20;1.00;;;;;;5106376;27;20239;-84
2022/02/08 04:56:33;;;;;;;7.85;3.97;;;4.20;1.00;;;;;;5104871;27;20231;-84
2022/02/08 04:59:14;;;;;;;10.32;3.90;;;4.30;1.00;;;;;;5111441;28;20307;-84
2022/02/08 05:01:56;;;;;;;11.70;3.88;;;4.30;1.00;;;;;;5098476;27;20212;-82
2022/02/08 05:35:21;;;;;;;11.27;6.05;;;4.10;1.00;;;;;;5093865;27;20218;-82
2022/02/08 05:41:04;;;;;;;8.10;6.70;;;4.10;1.00;;;;;;5096666;27;20701;-81
2022/02/08 05:43:40;;;;;;;8.00;5.00;;;4.10;1.00;;;;;;5096196;27;20328;-82
2022/02/08 05:49:02;;;;;;;9.40;5.00;;;4.10;1.00;;;;;;5098477;28;20219;-82
2022/02/08 05:51:44;;;;;;;7.28;5.43;;;4.00;1.00;;;;;;5099607;27;20227;-82
2022/02/08 05:54:15;;;;;;;8.63;6.28;;;4.00;1.00;;;;;;5099769;27;20272;-84
2022/02/08 05:56:48;;;;;;;8.75;5.10;;;4.00;1.00;;;;;;5102792;27;20285;-86
2022/02/08 05:59:15;;;;;;;8.43;4.55;;;4.10;1.00;;;;;;5105135;27;20231;-85
2022/02/08 06:01:42;;;;;;;10.45;5.40;;;4.20;1.00;;;;;;5107102;27;20397;-86
2022/02/08 06:04:11;;;;;;;11.30;5.80;;;4.20;1.00;;;;;;5095986;27;20250;-84
2022/02/08 06:06:38;;;;;;;14.32;5.05;;;4.20;1.00;;;;;;5101670;27;20219;-78
2022/02/08 06:09:04;;;;;;;9.88;5.20;;;4.20;1.00;;;;;;5101327;27;21032;-82
2022/02/08 06:11:35;;;;;;;14.00;6.25;;;4.20;1.00;;;;;;5093099;27;20231;-81
2022/02/08 06:14:04;;;;;;;11.10;5.88;;;4.20;1.00;;;;;;5112996;27;20230;-80
2022/02/08 06:16:31;;;;;;;10.45;5.47;;;4.30;1.00;;;;;;5111267;27;20200;-80
2022/02/08 06:18:58;;;;;;;10.80;6.90;;;4.30;1.00;;;;;;5105257;27;20456;-85
2022/02/08 06:21:25;;;;;;;12.48;7.65;;;4.30;1.00;;;;;;5092913;27;20228;-81
2022/02/08 06:23:52;;;;;;;11.55;8.30;;;4.30;1.00;;;;;;5092459;27;20219;-84
2022/02/08 06:26:21;;;;;;;10.02;8.55;;;4.30;1.00;;;;;;5102689;27;20224;-86
2022/02/08 06:28:56;;;;;;;18.85;12.30;;;4.30;1.00;;;;;;5107012;27;20226;-89
2022/02/08 06:31:24;;;;;;;16.98;10.32;;;4.30;1.00;;;;;;5100602;27;20219;-80
2022/02/08 06:33:51;;;;;;;15.88;10.73;;;4.30;1.00;;;;;;5099534;27;21023;-80
2022/02/08 06:36:19;;;;;;;17.73;13.05;;;4.30;1.00;;;;;;5101296;27;20221;-79
2022/02/08 06:38:46;;;;;;;16.75;11.75;;;4.40;1.00;;;;;;5103235;28;20244;-80
2022/02/08 06:41:13;;;;;;;14.85;11.30;;;4.40;1.00;;;;;;5098868;27;20229;-80
2022/02/08 06:43:40;;;;;;;20.92;12.20;;;4.50;1.00;;;;;;5100265;27;20319;-85
2022/02/08 06:46:07;;;;;;;15.98;10.80;;;4.50;1.00;;;;;;5106846;27;20223;-85
2022/02/08 06:48:36;;;;;;;24.55;13.40;;;4.50;1.00;;;;;;5111279;27;20227;-87
2022/02/08 06:51:02;;;;;;;18.75;11.35;;;4.50;1.00;;;;;;5119346;27;20242;-86
2022/02/08 06:53:29;;;;;;;16.15;12.30;;;4.50;1.00;;;;;;5111243;27;20278;-84
2022/02/08 06:55:56;;;;;;;18.25;11.90;;;4.60;1.00;;;;;;5111160;28;20224;-84
2022/02/08 06:58:30;;;;;;;13.27;10.75;;;4.60;1.00;;;;;;5116835;27;20348;-84
2022/02/08 07:01:02;;;;;;;14.45;11.23;;;4.70;1.00;;;;;;5107713;27;20257;-78
2022/02/08 07:03:30;;;;;;;12.23;9.35;;;4.70;1.00;;;;;;5107350;27;20223;-78
2022/02/08 07:05:58;;;;;;;14.68;9.70;;;4.70;1.00;;;;;;5111670;27;20220;-81
2022/02/08 07:08:26;;;;;;;15.65;9.55;;;4.70;1.00;;;;;;5105856;27;20240;-79
2022/02/08 07:10:53;;;;;;;22.05;10.55;;;4.70;1.00;;;;;;5105967;27;20227;-78
2022/02/08 07:13:20;;;;;;;15.15;10.52;;;4.70;1.00;;;;;;5111460;27;20282;-80
2022/02/08 07:15:47;;;;;;;21.00;9.05;;;4.70;1.00;;;;;;5107789;27;20315;-85
2022/02/08 07:18:14;;;;;;;18.05;8.98;;;4.80;1.00;;;;;;5110746;27;20228;-85
2022/02/08 07:20:41;;;;;;;11.98;9.00;;;4.90;1.00;;;;;;5111597;27;20266;-84
2022/02/08 07:23:09;;;;;;;16.67;9.13;;;4.90;1.00;;;;;;5124239;27;20216;-84
2022/02/08 07:25:36;;;;;;;15.18;8.90;;;5.00;1.00;;;;;;5106247;27;20238;-83
2022/02/08 07:28:03;;;;;;;12.38;8.50;;;5.00;1.00;;;;;;5112246;27;20329;-86
2022/02/08 07:30:32;;;;;;;16.52;9.40;;;5.00;1.00;;;;;;5105928;27;20227;-86
2022/02/08 07:32:59;;;;;;;12.50;8.43;;;5.00;1.00;;;;;;5107270;28;20227;-83
2022/02/08 07:35:31;;;;;;;12.00;7.90;;;5.10;1.00;;;;;;5103382;27;20223;-85
2022/02/08 07:38:05;;;;;;;12.93;8.20;;;5.10;1.00;;;;;;5109116;27;20231;-84
2022/02/08 07:43:23;;;;;;;12.63;8.35;;;4.90;1.00;;;;;;5110005;27;20251;-86
2022/02/08 07:45:50;;;;;;;18.45;10.73;;;4.90;1.00;;;;;;5110609;27;20216;-84
2022/02/08 07:48:17;;;;;;;15.65;10.23;;;4.80;1.00;;;;;;5114058;27;20295;-83
2022/02/08 07:50:46;;;;;;;13.73;9.05;;;4.80;1.00;;;;;;5113634;27;20230;-84
2022/02/08 07:53:15;;;;;;;13.63;8.70;;;4.70;1.00;;;;;;5120001;27;20227;-87
2022/02/08 07:55:44;;;;;;;10.30;8.13;;;4.70;1.00;;;;;;5122361;27;20224;-88
2022/02/08 07:58:11;;;;;;;18.17;9.35;;;4.70;1.00;;;;;;5125232;27;20227;-86
2022/02/08 08:00:39;;;;;;;18.45;10.30;;;4.70;1.00;;;;;;5122101;28;20220;-86
2022/02/08 08:03:06;;;;;;;14.88;9.13;;;4.70;1.00;;;;;;5124673;27;20223;-82
2022/02/08 08:05:33;;;;;;;16.98;9.57;;;4.70;1.00;;;;;;5129658;27;22058;-83
2022/02/08 08:10:44;;;;;;;12.10;9.05;;;4.80;1.00;;;;;;5067327;26;20244;-85
2022/02/08 08:13:16;;;;;;;18.88;10.95;;;4.80;1.00;;;;;;5054874;28;20287;-86
2022/02/08 08:15:48;;;;;;;18.27;10.18;;;4.80;1.00;;;;;;5055323;28;20234;-85
2022/02/08 08:18:24;;;;;;;9.93;7.45;;;4.70;1.00;;;;;;5062951;28;20222;-86
2022/02/08 08:20:52;;;;;;;16.08;9.45;;;4.70;1.00;;;;;;5046635;28;20300;-83
2022/02/08 08:23:19;;;;;;;15.07;9.25;;;4.70;1.00;;;;;;5057800;28;20231;-83
2022/02/08 08:25:49;;;;;;;11.00;8.65;;;4.80;1.00;;;;;;5061962;28;20222;-85
2022/02/08 08:28:17;;;;;;;11.35;8.63;;;4.80;1.00;;;;;;5037518;28;20234;-85
2022/02/08 08:30:44;;;;;;;14.93;8.55;;;4.80;1.00;;;;;;5054246;28;20256;-85
2022/02/08 08:33:11;;;;;;;12.20;9.32;;;4.80;1.00;;;;;;5036031;28;20309;-86
2022/02/08 08:35:40;;;;;;;13.63;9.07;;;4.90;1.00;;;;;;5051504;28;20779;-86
2022/02/08 08:38:09;;;;;;;13.13;8.35;;;4.90;1.00;;;;;;5051362;28;20828;-87
2022/02/08 08:40:50;;;;;;;13.85;8.77;;;4.90;1.00;;;;;;5052375;28;20225;-83
2022/02/08 08:43:44;;;;;;;16.58;8.35;;;5.00;1.00;;;;;;5051609;28;20229;-83
2022/02/08 08:49:22;;;;;;;11.60;8.32;;;5.00;1.00;;;;;;5059076;28;20214;-86
2022/02/08 08:51:52;;;;;;;11.85;8.15;;;5.00;1.00;;;;;;5056198;28;20222;-87
2022/02/08 08:54:22;;;;;;;11.07;8.25;;;5.10;1.00;;;;;;5034328;28;20232;-86
2022/02/08 08:56:51;;;;;;;12.23;9.10;;;5.10;1.00;;;;;;5060111;28;20236;-86
2022/02/08 08:59:21;;;;;;;10.00;8.55;;;5.20;1.00;;;;;;5034521;28;20728;-85
2022/02/08 09:01:49;;;;;;;11.10;9.43;;;5.30;1.00;;;;;;5018656;28;20303;-86
2022/02/08 09:04:18;;;;;;;12.20;9.57;;;5.30;1.00;;;;;;5017615;28;20245;-85
2022/02/08 09:06:49;;;;;;;11.85;9.23;;;5.30;1.00;;;;;;5036049;28;20277;-85
2022/02/08 09:09:19;;;;;;;14.23;8.48;;;5.40;1.00;;;;;;5038739;28;20230;-87
2022/02/08 09:12:24;;;;;;;12.00;8.63;;;5.40;1.00;;;;;;5032696;28;20455;-89
2022/02/08 09:18:47;;;;;;;13.25;9.40;;;5.50;1.00;;;;;;5021528;28;20542;-84
2022/02/08 09:21:31;;;;;;;14.88;9.00;;;5.60;1.00;;;;;;5030817;28;20238;-88
2022/02/08 09:27:09;;;;;;;11.80;9.23;;;5.60;1.00;;;;;;5032779;28;20250;-87
2022/02/08 09:29:42;;;;;;;14.32;8.68;;;5.70;1.00;;;;;;5033404;28;20230;-86
2022/02/08 09:32:16;;;;;;;12.88;9.50;;;5.70;1.00;;;;;;5013037;28;20598;-88
2022/02/08 09:34:46;;;;;;;9.15;7.88;;;5.80;1.00;;;;;;5030405;28;20234;-87
2022/02/08 09:37:15;;;;;;;17.00;9.23;;;5.90;1.00;;;;;;5029680;28;20288;-88
2022/02/08 09:39:43;;;;;;;12.20;8.07;;;5.90;1.00;;;;;;5027122;28;20265;-88
2022/02/08 09:42:12;;;;;;;11.13;8.55;;;6.00;1.00;;;;;;5032104;28;20222;-89
2022/02/08 09:44:49;;;;;;;11.60;8.98;;;6.00;1.00;;;;;;5023197;28;20226;-88
2022/02/08 09:47:20;;;;;;;11.63;8.57;;;6.00;1.00;;;;;;5035033;28;20754;-88
2022/02/08 09:49:55;;;;;;;14.57;9.63;;;6.10;1.00;;;;;;5016236;28;20227;-88
2022/02/08 09:52:23;;;;;;;13.45;9.00;;;6.20;1.00;;;;;;5035676;28;20475;-86
2022/02/08 09:54:50;;;;;;;14.70;9.77;;;6.20;1.00;;;;;;5026423;28;20222;-86
2022/02/08 09:57:18;;;;;;;14.48;8.80;;;6.30;1.00;;;;;;5035766;28;20237;-86
2022/02/08 09:59:47;;;;;;;11.10;8.57;;;6.30;1.00;;;;;;5023856;28;20337;-86
2022/02/08 10:02:19;;;;;;;9.52;7.95;;;6.30;1.00;;;;;;5050981;28;20225;-87
2022/02/08 10:04:46;;;;;;;9.73;7.90;;;6.40;1.00;;;;;;5028423;28;20708;-87
2022/02/08 10:07:15;;;;;;;12.57;7.82;;;6.40;1.00;;;;;;5029757;28;20223;-87
2022/02/08 10:09:50;;;;;;;11.73;8.20;;;6.40;1.00;;;;;;5028723;28;20326;-86
2022/02/08 10:12:21;;;;;;;14.23;8.13;;;6.40;1.00;;;;;;5009991;28;20222;-86
2022/02/08 10:18:55;;;;;;;10.57;7.60;;;6.50;1.00;;;;;;5026155;28;20228;-87
2022/02/08 10:23:12;;;;;;;8.48;7.40;;;6.60;1.00;;;;;;5026110;28;21620;-86
2022/02/08 10:25:48;;;;;;;14.02;10.35;;;6.60;1.00;;;;;;5028976;28;20226;-87
2022/02/08 10:28:27;;;;;;;8.38;7.03;;;6.60;1.00;;;;;;5032431;28;20218;-86
2022/02/08 10:31:19;;;;;;;12.20;7.50;;;6.60;1.00;;;;;;5031600;28;20227;-87
2022/02/08 10:40:12;;;;;;;7.30;6.50;;;6.70;1.00;;;;;;4995456;28;21316;-85
2022/02/08 10:42:56;;;;;;;9.30;8.30;;;6.80;1.00;;;;;;5017571;28;20256;-87
2022/02/08 10:49:04;;;;;;;11.60;7.05;;;6.90;1.00;;;;;;5039010;28;20229;-88
2022/02/08 10:52:10;;;;;;;9.15;7.97;;;6.90;1.00;;;;;;5029414;28;20257;-90
2022/02/08 10:55:12;;;;;;;10.20;7.35;;;6.90;1.00;;;;;;5034924;28;20234;-87
2022/02/08 11:00:56;;;;;;;10.55;7.03;;;7.00;1.00;;;;;;4988483;28;20265;-86
2022/02/08 11:03:46;;;;;;;10.75;6.60;;;7.10;1.00;;;;;;5035587;28;20226;-88
2022/02/08 11:47:53;;;;;;;11.65;8.85;;;7.60;1.00;;;;;;5039891;28;20231;-83
2022/02/08 11:54:23;;;;;;;13.18;9.70;;;7.70;1.00;;;;;;5100145;22;20340;-84
2022/02/08 11:57:53;;;;;;;15.18;10.82;;;7.70;1.00;;;;;;5020238;28;20259;-84
2022/02/08 12:04:32;;;;;;;15.15;11.70;;;7.80;1.00;;;;;;5027495;28;20219;-85
2022/02/08 12:07:15;;;;;;;15.07;11.15;;;7.80;1.00;;;;;;5036963;28;20219;-88
2022/02/08 12:09:53;;;;;;;16.48;10.80;;;7.80;1.00;;;;;;5031246;28;20231;-88
2022/02/08 12:58:49;;;;;;;12.85;11.55;;;8.10;1.00;;;;;;5154659;27;20285;-82
2022/02/08 14:01:55;;;;;;;14.45;12.10;;;8.70;1.00;;;;;;5116643;27;20223;-86
2022/02/08 14:07:27;;;;;;;15.38;11.50;;;8.70;1.00;;;;;;5079936;27;20230;-85
2022/02/08 14:13:22;;;;;;;14.18;11.05;;;8.80;1.00;;;;;;5090815;27;20235;-84
2022/02/08 14:16:08;;;;;;;16.98;12.10;;;8.80;1.00;;;;;;5104621;27;20223;-81
2022/02/08 14:18:48;;;;;;;19.25;11.73;;;8.80;1.00;;;;;;5103974;28;20218;-81
2022/02/08 14:21:23;;;;;;;15.48;12.23;;;8.80;1.00;;;;;;5118373;27;20321;-80
2022/02/08 14:24:00;;;;;;;16.10;12.30;;;8.80;1.00;;;;;;5122346;27;20250;-79
2022/02/08 14:32:04;;;;;;;18.73;13.82;;;8.80;1.00;;;;;;5107869;27;20734;-83
2022/02/08 14:48:51;;;;;;;17.77;12.88;;;8.80;1.00;;;;;;5104397;28;20231;-84
2022/02/08 15:05:30;;;;;;;13.53;10.93;;;8.90;1.00;;;;;;5088930;28;20229;-83
2022/02/08 15:08:05;;;;;;;14.20;11.43;;;8.80;1.00;;;;;;5086249;28;20418;-83
2022/02/08 15:10:40;;;;;;;14.53;11.30;;;8.90;1.00;;;;;;5105075;27;20525;-80
2022/02/08 15:13:08;;;;;;;12.32;11.00;;;8.90;1.00;;;;;;5110165;27;20430;-82
2022/02/08 15:15:46;;;;;;;12.82;10.35;;;8.90;1.00;;;;;;5104335;27;20232;-84
2022/02/08 15:18:12;;;;;;;14.45;10.60;;;8.90;1.00;;;;;;5120704;27;20232;-87
2022/02/08 15:20:39;;;;;;;15.98;11.15;;;8.90;1.00;;;;;;5090410;28;20218;-86
2022/02/08 15:23:10;;;;;;;13.45;11.35;;;8.90;1.00;;;;;;5092784;27;20258;-87
2022/02/08 15:25:39;;;;;;;14.27;10.60;;;9.00;1.00;;;;;;5106425;27;20230;-86
2022/02/08 15:28:06;;;;;;;12.17;10.80;;;9.00;1.00;;;;;;5093626;28;20217;-86
2022/02/08 15:30:36;;;;;;;12.20;8.75;;;9.00;1.00;;;;;;5113687;27;21218;-86
2022/02/08 15:33:09;;;;;;;11.60;9.65;;;9.00;1.00;;;;;;5112085;27;20296;-85
2022/02/08 15:35:36;;;;;;;11.60;9.60;;;9.00;1.00;;;;;;5110642;27;20242;-86
2022/02/08 15:38:05;;;;;;;13.23;9.52;;;9.10;1.00;;;;;;5111527;28;20266;-86
2022/02/08 15:40:32;;;;;;;12.98;10.23;;;9.10;1.00;;;;;;5092911;28;20289;-89
2022/02/08 15:43:01;;;;;;;11.85;10.00;;;9.20;1.00;;;;;;5110309;27;20226;-85
2022/02/08 15:45:33;;;;;;;12.63;8.90;;;9.20;1.00;;;;;;5114489;27;20230;-87
2022/02/08 15:48:00;;;;;;;13.82;8.45;;;9.30;1.00;;;;;;5118369;28;20410;-84
2022/02/08 15:50:34;;;;;;;11.93;8.25;;;9.30;1.00;;;;;;5105822;27;20230;-85
2022/02/08 15:53:23;;;;;;;11.50;9.07;;;9.30;1.00;;;;;;5113599;27;20278;-84
2022/02/08 15:56:06;;;;;;;15.23;9.13;;;9.30;1.00;;;;;;5121415;27;20220;-86
2022/02/08 16:01:28;;;;;;;10.52;9.20;;;9.40;1.00;;;;;;5105849;27;20295;-81
2022/02/08 16:06:56;;;;;;;9.60;7.68;;;9.30;1.00;;;;;;5104320;27;20371;-83
2022/02/08 16:09:30;;;;;;;9.98;8.20;;;9.20;1.00;;;;;;5092802;28;20241;-82
2022/02/08 16:12:10;;;;;;;10.75;9.45;;;9.20;1.00;;;;;;5111144;27;20228;-82
2022/02/08 16:14:56;;;;;;;10.87;9.17;;;9.20;1.00;;;;;;5097435;28;20388;-82
2022/02/08 16:17:33;;;;;;;10.70;9.30;;;9.20;1.00;;;;;;5108437;27;20842;-82
2022/02/08 16:20:17;;;;;;;10.48;8.98;;;9.20;1.00;;;;;;5107637;27;21335;-82
2022/02/08 16:25:38;;;;;;;10.35;9.35;;;9.20;1.00;;;;;;5106845;27;20269;-83
2022/02/08 16:28:21;;;;;;;11.00;9.50;;;9.10;1.00;;;;;;5105429;27;20326;-81
2022/02/08 16:31:19;;;;;;;12.10;9.83;;;9.10;1.00;;;;;;5105313;27;20421;-82
2022/02/08 16:53:43;;;;;;;11.55;9.75;;;9.00;1.00;;;;;;5164023;27;20590;-85
2022/02/08 16:56:20;;;;;;;13.20;10.40;;;9.00;1.00;;;;;;5125597;27;20218;-84
2022/02/08 16:58:52;;;;;;;11.65;9.85;;;9.00;1.00;;;;;;5147797;27;20218;-85
2022/02/08 17:01:23;;;;;;;12.05;10.77;;;9.00;1.00;;;;;;5128382;27;20366;-85
2022/02/08 17:03:51;;;;;;;12.70;10.85;;;9.00;1.00;;;;;;5143838;27;20228;-84
2022/02/08 17:06:22;;;;;;;12.35;10.52;;;9.00;1.00;;;;;;5148631;27;20236;-85
2022/02/08 17:09:06;;;;;;;11.77;10.55;;;9.00;1.00;;;;;;5151995;27;20218;-85
2022/02/08 17:11:42;;;;;;;11.52;10.07;;;9.10;1.00;;;;;;5150225;27;20236;-84
2022/02/08 17:16:55;;;;;;;14.25;11.25;;;9.10;1.00;;;;;;5146155;27;20236;-84
2022/02/08 17:19:49;;;;;;;11.35;10.10;;;9.00;1.00;;;;;;5147920;27;20224;-85
2022/02/08 17:47:38;;;;;;;11.50;10.30;;;9.00;1.00;;;;;;5158560;27;20303;-86
2022/02/08 17:50:07;;;;;;;13.05;10.55;;;9.00;1.00;;;;;;5139628;27;20289;-84
2022/02/08 17:52:34;;;;;;;12.43;9.95;;;9.00;1.00;;;;;;5141299;27;20250;-83
2022/02/08 17:55:01;;;;;;;12.47;9.90;;;9.00;1.00;;;;;;5131738;27;20232;-83
2022/02/08 17:57:29;;;;;;;11.77;9.38;;;9.00;1.00;;;;;;5138194;27;20460;-83
2022/02/08 17:59:57;;;;;;;11.88;10.63;;;9.00;1.00;;;;;;5145044;27;20215;-84
2022/02/08 18:02:24;;;;;;;13.23;10.23;;;9.00;1.00;;;;;;5151179;27;20299;-83
2022/02/08 18:04:53;;;;;;;11.95;10.20;;;9.00;1.00;;;;;;5125514;27;20266;-84
2022/02/08 18:07:21;;;;;;;14.00;11.18;;;9.00;1.00;;;;;;5117796;27;20318;-84
2022/02/08 18:09:48;;;;;;;13.05;11.25;;;9.00;1.00;;;;;;5122921;27;20235;-84
2022/02/08 18:12:15;;;;;;;13.63;11.55;;;9.00;1.00;;;;;;5128135;27;20237;-84
2022/02/08 18:14:49;;;;;;;18.20;12.00;;;9.00;1.00;;;;;;5123807;27;20310;-84
2022/02/08 18:17:20;;;;;;;13.95;11.57;;;9.00;1.00;;;;;;5127657;27;20231;-84
2022/02/08 18:19:52;;;;;;;13.32;11.82;;;9.00;1.00;;;;;;5122452;27;20221;-81
2022/02/08 18:22:30;;;;;;;16.77;13.07;;;9.00;1.00;;;;;;5115881;27;20320;-82
2022/02/08 18:25:21;;;;;;;13.00;10.00;;;9.00;1.00;;;;;;5125696;27;20205;-82
2022/02/08 18:28:14;;;;;;;14.18;10.75;;;9.00;1.00;;;;;;5123749;27;20435;-83
2022/02/08 18:55:59;;;;;;;13.30;10.45;;;9.00;1.00;;;;;;5126551;27;20232;-84
2022/02/08 19:04:37;;;;;;;15.25;10.95;;;9.00;1.00;;;;;;5127171;27;20443;-83
2022/02/08 19:07:08;;;;;;;14.57;11.68;;;9.00;1.00;;;;;;5123552;27;21233;-82
2022/02/08 19:09:47;;;;;;;13.15;10.88;;;9.00;1.00;;;;;;5127050;27;20314;-84
2022/02/08 19:12:18;;;;;;;15.63;12.48;;;9.00;1.00;;;;;;5125538;27;20241;-82
2022/02/08 19:15:15;;;;;;;13.88;11.13;;;9.00;1.00;;;;;;5124576;27;20221;-83
2022/02/08 19:17:53;;;;;;;14.63;12.37;;;9.00;1.00;;;;;;5126542;27;20228;-82
2022/02/08 19:20:27;;;;;;;13.85;10.95;;;9.00;1.00;;;;;;5134837;27;20409;-82
2022/02/08 19:22:54;;;;;;;13.27;11.70;;;9.00;1.00;;;;;;5119491;27;20241;-82
2022/02/08 19:25:21;;;;;;;15.65;11.85;;;9.00;1.00;;;;;;5125622;27;20228;-83
2022/02/08 19:27:49;;;;;;;14.60;12.05;;;9.00;1.00;;;;;;5125973;27;20220;-83
2022/02/08 19:30:16;;;;;;;14.05;12.38;;;9.00;1.00;;;;;;5130146;27;20218;-87
2022/02/08 19:32:45;;;;;;;16.77;13.20;;;9.00;1.00;;;;;;5124331;27;20363;-86
2022/02/08 19:35:13;;;;;;;15.10;12.73;;;9.00;1.00;;;;;;5123387;27;20299;-86
2022/02/08 19:37:45;;;;;;;16.25;12.90;;;9.00;1.00;;;;;;5127577;27;21016;-87
2022/02/08 19:40:12;;;;;;;16.58;14.25;;;9.00;1.00;;;;;;5140906;27;20336;-86
2022/02/08 19:42:39;;;;;;;17.58;13.43;;;9.00;1.00;;;;;;5123999;27;20231;-85
2022/02/08 19:45:13;;;;;;;16.10;13.00;;;9.00;1.00;;;;;;5128265;27;21082;-86
2022/02/08 19:47:40;;;;;;;16.33;13.15;;;9.00;1.00;;;;;;5130217;27;20231;-86
2022/02/08 19:50:08;;;;;;;18.95;13.30;;;9.00;1.00;;;;;;5131798;27;21059;-84
2022/02/08 19:52:35;;;;;;;18.55;13.30;;;9.00;1.00;;;;;;5138030;27;20243;-81
2022/02/08 19:55:23;;;;;;;15.00;12.50;;;9.10;1.00;;;;;;5138967;27;20215;-82
2022/02/08 19:57:53;;;;;;;19.17;14.50;;;9.00;1.00;;;;;;5142606;27;20210;-86
2022/02/08 20:00:26;;;;;;;17.48;13.13;;;9.00;1.00;;;;;;5140968;27;20223;-85
2022/02/08 20:02:56;;;;;;;19.73;14.30;;;9.00;1.00;;;;;;5129290;27;20223;-83
2022/02/08 20:05:28;;;;;;;15.98;12.82;;;9.00;1.00;;;;;;5128567;27;20260;-83
2022/02/08 20:07:54;;;;;;;20.55;16.05;;;9.00;1.00;;;;;;5133152;27;20371;-83
2022/02/08 20:10:22;;;;;;;17.90;13.88;;;9.10;1.00;;;;;;5123993;27;20256;-83
2022/02/08 20:12:49;;;;;;;17.50;15.13;;;9.10;1.00;;;;;;5129506;27;20262;-85
2022/02/08 20:15:16;;;;;;;16.45;12.75;;;9.10;1.00;;;;;;5122741;27;20227;-83
2022/02/08 20:17:43;;;;;;;20.13;15.40;;;9.10;1.00;;;;;;5126273;27;20228;-83
2022/02/08 20:20:13;;;;;;;17.60;14.80;;;9.00;1.00;;;;;;5119868;27;20459;-84
2022/02/08 20:22:45;;;;;;;20.55;14.48;;;9.10;1.00;;;;;;5129590;27;20229;-83
2022/02/08 20:25:13;;;;;;;18.95;13.98;;;9.10;1.00;;;;;;5131849;27;20257;-85
2022/02/08 20:27:50;;;;;;;17.53;14.00;;;9.10;1.00;;;;;;5139201;27;20402;-84
2022/02/08 20:30:23;;;;;;;18.08;14.55;;;9.00;1.00;;;;;;5132538;27;20470;-85
2022/02/08 20:32:52;;;;;;;18.15;14.95;;;9.10;1.00;;;;;;5129898;27;21045;-85
2022/02/08 20:35:20;;;;;;;17.60;14.45;;;9.10;1.00;;;;;;5126221;27;20240;-85
2022/02/08 20:37:48;;;;;;;18.20;14.00;;;9.10;1.00;;;;;;5127320;27;21228;-84
2022/02/08 20:40:15;;;;;;;18.35;14.70;;;9.10;1.00;;;;;;5124914;27;20291;-84
2022/02/08 20:42:44;;;;;;;18.90;14.63;;;9.10;1.00;;;;;;5133110;27;20235;-84
2022/02/08 20:45:11;;;;;;;18.35;13.35;;;9.00;1.00;;;;;;5123866;27;20276;-83
2022/02/08 20:47:41;;;;;;;19.55;14.90;;;9.00;1.00;;;;;;5122362;27;20221;-82
2022/02/08 20:50:11;;;;;;;19.50;14.43;;;9.10;1.00;;;;;;5124603;27;20335;-85
2022/02/08 20:52:42;;;;;;;18.63;15.10;;;9.00;1.00;;;;;;5126572;27;20238;-85
2022/02/08 20:55:12;;;;;;;19.52;15.68;;;9.10;1.00;;;;;;5132188;27;20526;-84
2022/02/08 20:57:39;;;;;;;19.73;14.85;;;9.10;1.00;;;;;;5130179;27;20681;-87
2022/02/08 21:00:15;;;;;;;20.40;16.00;;;9.10;1.00;;;;;;5129009;27;20733;-88
2022/02/08 21:02:54;;;;;;;21.60;15.20;;;9.10;1.00;;;;;;5119158;27;20248;-82
2022/02/08 21:05:33;;;;;;;20.90;15.45;;;9.10;1.00;;;;;;5118032;27;20492;-84
2022/02/08 21:07:59;;;;;;;20.60;15.25;;;9.10;1.00;;;;;;5122251;27;21148;-85
2022/02/08 21:10:27;;;;;;;18.63;14.98;;;9.10;1.00;;;;;;5124870;27;20226;-86
2022/02/08 21:13:12;;;;;;;19.90;14.77;;;9.10;1.00;;;;;;5130579;27;20238;-87
2022/02/08 21:15:42;;;;;;;19.88;15.65;;;9.20;1.00;;;;;;5131359;27;20276;-88
2022/02/08 21:18:09;;;;;;;20.30;15.13;;;9.20;1.00;;;;;;5124705;27;20214;-87
2022/02/08 21:20:36;;;;;;;17.97;13.97;;;9.20;1.00;;;;;;5139018;27;20436;-84
2022/02/08 21:23:03;;;;;;;21.37;17.00;;;9.20;1.00;;;;;;5150665;27;20423;-83
2022/02/08 21:25:34;;;;;;;21.40;17.15;;;9.20;1.00;;;;;;5149271;27;20418;-84
2022/02/08 21:28:03;;;;;;;22.73;16.67;;;9.20;1.00;;;;;;5149176;27;20226;-83
2022/02/08 21:30:50;;;;;;;19.15;15.43;;;9.20;1.00;;;;;;5140627;27;20455;-83
2022/02/08 21:44:58;;;;;;;19.77;15.50;;;9.10;1.00;;;;;;5126133;27;20456;-85